sensor_id;sensor_type;location;lat;lon;timestamp;P1;durP1;ratioP1;P2;durP2;ratioP2
71513;SDS011;59335;46.652;21.272;2023-05-23T00:00:52;5.80;;;3.10;;
71513;SDS011;59335;46.652;21.272;2023-05-23T00:03:54;8.32;;;3.30;;
71513;SDS011;59335;46.652;21.272;2023-05-23T00:06:57;5.90;;;3.05;;
71513;SDS011;59335;46.652;21.272;2023-05-23T00:10:01;7.28;;;3.03;;
71513;SDS011;59335;46.652;21.272;2023-05-23T00:13:04;6.77;;;3.20;;
71513;SDS011;59335;46.652;21.272;2023-05-23T00:16:10;7.65;;;2.90;;
71513;SDS011;59335;46.652;21.272;2023-05-23T00:19:13;5.40;;;3.08;;
71513;SDS011;59335;46.652;21.272;2023-05-23T00:22:18;6.72;;;3.00;;
71513;SDS011;59335;46.652;21.272;2023-05-23T00:25:21;8.52;;;3.33;;
71513;SDS011;59335;46.652;21.272;2023-05-23T00:28:24;6.60;;;3.03;;
71513;SDS011;59335;46.652;21.272;2023-05-23T00:31:27;7.75;;;2.90;;
71513;SDS011;59335;46.652;21.272;2023-05-23T00:34:30;7.03;;;3.30;;
71513;SDS011;59335;46.652;21.272;2023-05-23T00:37:32;5.82;;;2.97;;
71513;SDS011;59335;46.652;21.272;2023-05-23T00:40:38;6.32;;;3.20;;
71513;SDS011;59335;46.652;21.272;2023-05-23T00:43:41;6.30;;;3.00;;
71513;SDS011;59335;46.652;21.272;2023-05-23T00:46:44;6.60;;;2.90;;
71513;SDS011;59335;46.652;21.272;2023-05-23T00:49:51;6.38;;;3.45;;
71513;SDS011;59335;46.652;21.272;2023-05-23T00:52:53;6.38;;;3.22;;
71513;SDS011;59335;46.652;21.272;2023-05-23T00:55:57;5.90;;;3.00;;
71513;SDS011;59335;46.652;21.272;2023-05-23T00:59:00;6.17;;;3.20;;
71513;SDS011;59335;46.652;21.272;2023-05-23T01:02:03;6.47;;;3.30;;
71513;SDS011;59335;46.652;21.272;2023-05-23T01:05:07;5.40;;;2.83;;
71513;SDS011;59335;46.652;21.272;2023-05-23T01:08:10;5.70;;;2.80;;
71513;SDS011;59335;46.652;21.272;2023-05-23T01:11:22;6.85;;;3.28;;
71513;SDS011;59335;46.652;21.272;2023-05-23T01:14:41;6.00;;;3.20;;
71513;SDS011;59335;46.652;21.272;2023-05-23T01:21:18;7.03;;;3.42;;
71513;SDS011;59335;46.652;21.272;2023-05-23T01:24:29;5.60;;;2.85;;
71513;SDS011;59335;46.652;21.272;2023-05-23T01:27:50;5.78;;;3.10;;
71513;SDS011;59335;46.652;21.272;2023-05-23T01:30:54;8.60;;;3.10;;
71513;SDS011;59335;46.652;21.272;2023-05-23T01:33:59;6.53;;;3.13;;
71513;SDS011;59335;46.652;21.272;2023-05-23T01:37:02;8.57;;;3.35;;
71513;SDS011;59335;46.652;21.272;2023-05-23T01:40:10;7.10;;;3.10;;
71513;SDS011;59335;46.652;21.272;2023-05-23T01:43:13;6.85;;;3.30;;
71513;SDS011;59335;46.652;21.272;2023-05-23T01:46:16;5.70;;;3.30;;
71513;SDS011;59335;46.652;21.272;2023-05-23T01:49:20;7.55;;;3.20;;
71513;SDS011;59335;46.652;21.272;2023-05-23T01:52:26;5.43;;;3.03;;
71513;SDS011;59335;46.652;21.272;2023-05-23T01:55:29;6.00;;;2.78;;
71513;SDS011;59335;46.652;21.272;2023-05-23T01:58:32;7.75;;;3.30;;
71513;SDS011;59335;46.652;21.272;2023-05-23T02:01:36;8.13;;;3.30;;
71513;SDS011;59335;46.652;21.272;2023-05-23T02:04:40;6.05;;;2.90;;
71513;SDS011;59335;46.652;21.272;2023-05-23T02:07:42;6.40;;;2.97;;
71513;SDS011;59335;46.652;21.272;2023-05-23T02:10:45;6.65;;;3.03;;
71513;SDS011;59335;46.652;21.272;2023-05-23T02:13:48;6.90;;;3.05;;
71513;SDS011;59335;46.652;21.272;2023-05-23T02:16:51;6.33;;;3.20;;
71513;SDS011;59335;46.652;21.272;2023-05-23T02:19:54;6.07;;;2.90;;
71513;SDS011;59335;46.652;21.272;2023-05-23T02:22:57;7.68;;;3.08;;
71513;SDS011;59335;46.652;21.272;2023-05-23T02:26:00;6.25;;;2.97;;
71513;SDS011;59335;46.652;21.272;2023-05-23T02:29:03;5.70;;;3.10;;
71513;SDS011;59335;46.652;21.272;2023-05-23T02:32:07;6.20;;;3.50;;
71513;SDS011;59335;46.652;21.272;2023-05-23T02:35:10;5.97;;;3.08;;
71513;SDS011;59335;46.652;21.272;2023-05-23T02:38:13;7.82;;;3.40;;
71513;SDS011;59335;46.652;21.272;2023-05-23T02:41:16;6.75;;;3.10;;
71513;SDS011;59335;46.652;21.272;2023-05-23T02:44:18;6.90;;;3.10;;
71513;SDS011;59335;46.652;21.272;2023-05-23T02:47:21;6.60;;;3.20;;
71513;SDS011;59335;46.652;21.272;2023-05-23T02:50:24;6.35;;;3.30;;
71513;SDS011;59335;46.652;21.272;2023-05-23T02:53:27;5.43;;;2.83;;
71513;SDS011;59335;46.652;21.272;2023-05-23T02:56:29;6.65;;;3.20;;
71513;SDS011;59335;46.652;21.272;2023-05-23T02:59:32;6.75;;;3.17;;
71513;SDS011;59335;46.652;21.272;2023-05-23T03:02:35;6.20;;;3.10;;
71513;SDS011;59335;46.652;21.272;2023-05-23T03:05:38;7.40;;;2.80;;
71513;SDS011;59335;46.652;21.272;2023-05-23T03:08:41;6.65;;;3.35;;
71513;SDS011;59335;46.652;21.272;2023-05-23T03:11:44;6.57;;;2.90;;
71513;SDS011;59335;46.652;21.272;2023-05-23T03:14:47;5.68;;;3.20;;
71513;SDS011;59335;46.652;21.272;2023-05-23T03:17:50;5.87;;;2.87;;
71513;SDS011;59335;46.652;21.272;2023-05-23T03:20:53;9.18;;;3.03;;
71513;SDS011;59335;46.652;21.272;2023-05-23T03:23:57;6.22;;;3.10;;
71513;SDS011;59335;46.652;21.272;2023-05-23T03:27:00;5.50;;;3.10;;
71513;SDS011;59335;46.652;21.272;2023-05-23T03:30:03;5.00;;;3.00;;
71513;SDS011;59335;46.652;21.272;2023-05-23T03:33:06;6.10;;;2.90;;
71513;SDS011;59335;46.652;21.272;2023-05-23T03:36:10;5.90;;;3.15;;
71513;SDS011;59335;46.652;21.272;2023-05-23T03:39:13;5.22;;;3.00;;
71513;SDS011;59335;46.652;21.272;2023-05-23T03:42:16;5.47;;;3.03;;
71513;SDS011;59335;46.652;21.272;2023-05-23T03:45:20;6.72;;;2.80;;
71513;SDS011;59335;46.652;21.272;2023-05-23T03:48:22;7.00;;;3.17;;
71513;SDS011;59335;46.652;21.272;2023-05-23T03:51:26;6.05;;;3.08;;
71513;SDS011;59335;46.652;21.272;2023-05-23T03:54:29;7.25;;;2.97;;
71513;SDS011;59335;46.652;21.272;2023-05-23T03:57:32;5.13;;;2.92;;
71513;SDS011;59335;46.652;21.272;2023-05-23T04:00:35;5.57;;;3.13;;
71513;SDS011;59335;46.652;21.272;2023-05-23T04:03:40;6.73;;;2.53;;
71513;SDS011;59335;46.652;21.272;2023-05-23T04:06:43;6.28;;;2.90;;
71513;SDS011;59335;46.652;21.272;2023-05-23T04:09:46;5.72;;;3.10;;
71513;SDS011;59335;46.652;21.272;2023-05-23T04:12:49;5.97;;;3.25;;
71513;SDS011;59335;46.652;21.272;2023-05-23T04:15:53;5.88;;;3.05;;
71513;SDS011;59335;46.652;21.272;2023-05-23T04:18:59;5.60;;;2.80;;
71513;SDS011;59335;46.652;21.272;2023-05-23T04:22:06;5.53;;;2.60;;
71513;SDS011;59335;46.652;21.272;2023-05-23T04:25:10;5.80;;;2.88;;
71513;SDS011;59335;46.652;21.272;2023-05-23T04:28:20;6.10;;;2.67;;
71513;SDS011;59335;46.652;21.272;2023-05-23T04:31:23;5.93;;;2.80;;
71513;SDS011;59335;46.652;21.272;2023-05-23T04:34:26;5.20;;;2.70;;
71513;SDS011;59335;46.652;21.272;2023-05-23T04:37:29;6.38;;;3.15;;
71513;SDS011;59335;46.652;21.272;2023-05-23T04:40:34;5.55;;;2.83;;
71513;SDS011;59335;46.652;21.272;2023-05-23T04:43:56;5.30;;;3.10;;
71513;SDS011;59335;46.652;21.272;2023-05-23T04:47:03;6.53;;;3.10;;
71513;SDS011;59335;46.652;21.272;2023-05-23T04:50:24;6.37;;;2.70;;
71513;SDS011;59335;46.652;21.272;2023-05-23T04:53:27;5.20;;;3.00;;
71513;SDS011;59335;46.652;21.272;2023-05-23T04:56:31;5.72;;;2.95;;
71513;SDS011;59335;46.652;21.272;2023-05-23T04:59:34;5.53;;;3.20;;
71513;SDS011;59335;46.652;21.272;2023-05-23T05:02:37;5.55;;;3.03;;
71513;SDS011;59335;46.652;21.272;2023-05-23T05:05:41;5.27;;;2.97;;
71513;SDS011;59335;46.652;21.272;2023-05-23T05:08:43;5.80;;;2.83;;
71513;SDS011;59335;46.652;21.272;2023-05-23T05:11:47;5.90;;;2.70;;
71513;SDS011;59335;46.652;21.272;2023-05-23T05:14:49;7.32;;;2.90;;
71513;SDS011;59335;46.652;21.272;2023-05-23T05:17:52;6.40;;;2.95;;
71513;SDS011;59335;46.652;21.272;2023-05-23T05:20:56;5.30;;;2.90;;
71513;SDS011;59335;46.652;21.272;2023-05-23T05:23:59;5.70;;;2.88;;
71513;SDS011;59335;46.652;21.272;2023-05-23T05:27:02;7.47;;;2.80;;
71513;SDS011;59335;46.652;21.272;2023-05-23T05:30:06;6.25;;;3.05;;
71513;SDS011;59335;46.652;21.272;2023-05-23T05:33:32;6.10;;;2.63;;
71513;SDS011;59335;46.652;21.272;2023-05-23T05:36:46;7.67;;;2.60;;
71513;SDS011;59335;46.652;21.272;2023-05-23T05:39:52;6.25;;;2.83;;
71513;SDS011;59335;46.652;21.272;2023-05-23T05:42:56;7.43;;;3.00;;
71513;SDS011;59335;46.652;21.272;2023-05-23T05:45:58;9.23;;;3.90;;
71513;SDS011;59335;46.652;21.272;2023-05-23T05:49:03;8.25;;;4.57;;
71513;SDS011;59335;46.652;21.272;2023-05-23T05:52:06;10.00;;;4.50;;
71513;SDS011;59335;46.652;21.272;2023-05-23T05:55:10;8.18;;;4.20;;
71513;SDS011;59335;46.652;21.272;2023-05-23T05:58:18;6.45;;;3.90;;
71513;SDS011;59335;46.652;21.272;2023-05-23T06:01:34;10.18;;;4.30;;
71513;SDS011;59335;46.652;21.272;2023-05-23T06:04:37;9.88;;;3.80;;
71513;SDS011;59335;46.652;21.272;2023-05-23T06:07:40;10.03;;;4.10;;
71513;SDS011;59335;46.652;21.272;2023-05-23T06:10:43;9.32;;;4.18;;
71513;SDS011;59335;46.652;21.272;2023-05-23T06:13:46;10.25;;;3.90;;
71513;SDS011;59335;46.652;21.272;2023-05-23T06:16:59;11.23;;;4.32;;
71513;SDS011;59335;46.652;21.272;2023-05-23T06:20:02;7.47;;;3.72;;
71513;SDS011;59335;46.652;21.272;2023-05-23T06:23:07;10.07;;;3.83;;
71513;SDS011;59335;46.652;21.272;2023-05-23T06:26:10;6.18;;;3.88;;
71513;SDS011;59335;46.652;21.272;2023-05-23T06:29:15;7.93;;;3.83;;
71513;SDS011;59335;46.652;21.272;2023-05-23T06:32:18;7.35;;;4.07;;
71513;SDS011;59335;46.652;21.272;2023-05-23T06:35:20;8.35;;;3.65;;
71513;SDS011;59335;46.652;21.272;2023-05-23T06:38:26;5.97;;;2.90;;
71513;SDS011;59335;46.652;21.272;2023-05-23T06:41:30;8.07;;;3.50;;
71513;SDS011;59335;46.652;21.272;2023-05-23T06:44:33;8.55;;;3.53;;
71513;SDS011;59335;46.652;21.272;2023-05-23T06:47:37;7.60;;;3.60;;
71513;SDS011;59335;46.652;21.272;2023-05-23T06:50:40;9.32;;;4.22;;
71513;SDS011;59335;46.652;21.272;2023-05-23T06:53:45;7.37;;;3.63;;
71513;SDS011;59335;46.652;21.272;2023-05-23T06:56:48;7.80;;;3.80;;
71513;SDS011;59335;46.652;21.272;2023-05-23T06:59:51;11.05;;;3.70;;
71513;SDS011;59335;46.652;21.272;2023-05-23T07:02:56;13.98;;;3.63;;
71513;SDS011;59335;46.652;21.272;2023-05-23T07:06:14;7.43;;;3.90;;
71513;SDS011;59335;46.652;21.272;2023-05-23T07:09:17;7.67;;;4.00;;
71513;SDS011;59335;46.652;21.272;2023-05-23T07:12:22;7.22;;;4.18;;
71513;SDS011;59335;46.652;21.272;2023-05-23T07:15:28;8.65;;;3.72;;
71513;SDS011;59335;46.652;21.272;2023-05-23T07:18:41;9.05;;;3.55;;
71513;SDS011;59335;46.652;21.272;2023-05-23T07:21:53;8.80;;;3.40;;
71513;SDS011;59335;46.652;21.272;2023-05-23T07:25:07;6.77;;;3.57;;
71513;SDS011;59335;46.652;21.272;2023-05-23T07:28:14;5.53;;;3.22;;
71513;SDS011;59335;46.652;21.272;2023-05-23T07:31:29;6.80;;;3.53;;
71513;SDS011;59335;46.652;21.272;2023-05-23T07:34:33;8.32;;;3.30;;
71513;SDS011;59335;46.652;21.272;2023-05-23T07:37:37;6.30;;;3.50;;
71513;SDS011;59335;46.652;21.272;2023-05-23T07:40:48;7.00;;;3.57;;
71513;SDS011;59335;46.652;21.272;2023-05-23T07:44:09;10.20;;;3.95;;
71513;SDS011;59335;46.652;21.272;2023-05-23T07:47:13;7.82;;;3.58;;
71513;SDS011;59335;46.652;21.272;2023-05-23T07:50:32;9.18;;;3.60;;
71513;SDS011;59335;46.652;21.272;2023-05-23T07:53:37;7.80;;;3.38;;
71513;SDS011;59335;46.652;21.272;2023-05-23T07:57:01;9.20;;;3.50;;
71513;SDS011;59335;46.652;21.272;2023-05-23T08:00:05;9.85;;;3.40;;
71513;SDS011;59335;46.652;21.272;2023-05-23T08:03:16;9.50;;;3.33;;
71513;SDS011;59335;46.652;21.272;2023-05-23T08:06:33;8.23;;;3.25;;
71513;SDS011;59335;46.652;21.272;2023-05-23T08:09:40;9.55;;;3.80;;
71513;SDS011;59335;46.652;21.272;2023-05-23T08:12:47;9.50;;;3.70;;
71513;SDS011;59335;46.652;21.272;2023-05-23T08:15:52;9.73;;;3.67;;
71513;SDS011;59335;46.652;21.272;2023-05-23T08:18:59;11.30;;;3.80;;
71513;SDS011;59335;46.652;21.272;2023-05-23T08:22:02;9.07;;;3.70;;
71513;SDS011;59335;46.652;21.272;2023-05-23T08:25:06;7.22;;;3.83;;
71513;SDS011;59335;46.652;21.272;2023-05-23T08:28:11;10.20;;;4.07;;
71513;SDS011;59335;46.652;21.272;2023-05-23T08:31:23;8.35;;;3.70;;
71513;SDS011;59335;46.652;21.272;2023-05-23T08:34:29;10.10;;;4.13;;
71513;SDS011;59335;46.652;21.272;2023-05-23T08:37:41;7.18;;;4.00;;
71513;SDS011;59335;46.652;21.272;2023-05-23T08:40:50;10.18;;;4.07;;
71513;SDS011;59335;46.652;21.272;2023-05-23T08:44:00;8.87;;;3.90;;
71513;SDS011;59335;46.652;21.272;2023-05-23T08:47:07;9.48;;;3.75;;
71513;SDS011;59335;46.652;21.272;2023-05-23T08:50:19;11.88;;;4.07;;
71513;SDS011;59335;46.652;21.272;2023-05-23T08:53:24;9.38;;;3.90;;
71513;SDS011;59335;46.652;21.272;2023-05-23T08:56:35;8.52;;;3.83;;
71513;SDS011;59335;46.652;21.272;2023-05-23T08:59:41;8.87;;;4.20;;
71513;SDS011;59335;46.652;21.272;2023-05-23T09:02:46;15.18;;;5.15;;
71513;SDS011;59335;46.652;21.272;2023-05-23T09:06:09;11.10;;;4.80;;
71513;SDS011;59335;46.652;21.272;2023-05-23T09:09:13;19.77;;;4.53;;
71513;SDS011;59335;46.652;21.272;2023-05-23T09:12:16;12.27;;;4.60;;
71513;SDS011;59335;46.652;21.272;2023-05-23T09:15:21;11.30;;;4.27;;
71513;SDS011;59335;46.652;21.272;2023-05-23T09:18:25;13.00;;;4.45;;
71513;SDS011;59335;46.652;21.272;2023-05-23T09:21:29;13.10;;;4.32;;
71513;SDS011;59335;46.652;21.272;2023-05-23T09:24:45;9.98;;;4.65;;
71513;SDS011;59335;46.652;21.272;2023-05-23T09:27:50;12.15;;;5.28;;
71513;SDS011;59335;46.652;21.272;2023-05-23T09:30:58;9.57;;;5.20;;
71513;SDS011;59335;46.652;21.272;2023-05-23T09:34:05;8.30;;;4.60;;
71513;SDS011;59335;46.652;21.272;2023-05-23T09:37:10;10.05;;;5.00;;
71513;SDS011;59335;46.652;21.272;2023-05-23T09:40:14;8.05;;;4.30;;
71513;SDS011;59335;46.652;21.272;2023-05-23T09:43:31;8.38;;;5.00;;
71513;SDS011;59335;46.652;21.272;2023-05-23T09:46:35;8.57;;;4.20;;
71513;SDS011;59335;46.652;21.272;2023-05-23T09:49:55;11.50;;;4.22;;
71513;SDS011;59335;46.652;21.272;2023-05-23T09:53:42;9.32;;;4.90;;
71513;SDS011;59335;46.652;21.272;2023-05-23T09:56:45;9.63;;;4.15;;
71513;SDS011;59335;46.652;21.272;2023-05-23T09:59:53;9.15;;;4.70;;
71513;SDS011;59335;46.652;21.272;2023-05-23T10:03:15;10.37;;;4.23;;
71513;SDS011;59335;46.652;21.272;2023-05-23T10:09:32;8.75;;;4.32;;
71513;SDS011;59335;46.652;21.272;2023-05-23T10:12:46;10.38;;;4.47;;
71513;SDS011;59335;46.652;21.272;2023-05-23T10:16:00;10.63;;;4.53;;
71513;SDS011;59335;46.652;21.272;2023-05-23T10:19:31;9.07;;;4.10;;
71513;SDS011;59335;46.652;21.272;2023-05-23T10:22:45;12.52;;;4.82;;
71513;SDS011;59335;46.652;21.272;2023-05-23T10:25:47;8.93;;;4.60;;
71513;SDS011;59335;46.652;21.272;2023-05-23T10:28:50;9.73;;;4.32;;
71513;SDS011;59335;46.652;21.272;2023-05-23T10:31:54;12.40;;;4.65;;
71513;SDS011;59335;46.652;21.272;2023-05-23T10:35:03;12.30;;;4.50;;
71513;SDS011;59335;46.652;21.272;2023-05-23T10:38:36;8.27;;;4.85;;
71513;SDS011;59335;46.652;21.272;2023-05-23T10:41:57;8.25;;;4.45;;
71513;SDS011;59335;46.652;21.272;2023-05-23T10:45:16;10.15;;;4.28;;
71513;SDS011;59335;46.652;21.272;2023-05-23T10:48:32;8.63;;;4.47;;
71513;SDS011;59335;46.652;21.272;2023-05-23T10:51:39;9.47;;;4.20;;
71513;SDS011;59335;46.652;21.272;2023-05-23T10:54:49;9.60;;;4.22;;
71513;SDS011;59335;46.652;21.272;2023-05-23T11:01:20;10.77;;;4.63;;
71513;SDS011;59335;46.652;21.272;2023-05-23T11:04:25;8.80;;;4.68;;
71513;SDS011;59335;46.652;21.272;2023-05-23T11:07:30;8.53;;;4.47;;
71513;SDS011;59335;46.652;21.272;2023-05-23T11:14:02;10.10;;;4.60;;
71513;SDS011;59335;46.652;21.272;2023-05-23T11:20:14;9.90;;;4.47;;
71513;SDS011;59335;46.652;21.272;2023-05-23T11:23:20;12.00;;;4.70;;
71513;SDS011;59335;46.652;21.272;2023-05-23T11:26:29;10.32;;;4.53;;
71513;SDS011;59335;46.652;21.272;2023-05-23T11:29:33;10.82;;;4.47;;
71513;SDS011;59335;46.652;21.272;2023-05-23T11:32:36;10.80;;;4.53;;
71513;SDS011;59335;46.652;21.272;2023-05-23T11:35:40;11.90;;;4.65;;
71513;SDS011;59335;46.652;21.272;2023-05-23T11:38:48;10.40;;;4.50;;
71513;SDS011;59335;46.652;21.272;2023-05-23T11:42:03;9.48;;;4.25;;
71513;SDS011;59335;46.652;21.272;2023-05-23T11:45:07;13.27;;;4.75;;
71513;SDS011;59335;46.652;21.272;2023-05-23T11:48:11;11.40;;;4.10;;
71513;SDS011;59335;46.652;21.272;2023-05-23T11:51:14;14.35;;;4.90;;
71513;SDS011;59335;46.652;21.272;2023-05-23T11:54:21;10.10;;;4.33;;
71513;SDS011;59335;46.652;21.272;2023-05-23T11:57:25;11.85;;;4.60;;
71513;SDS011;59335;46.652;21.272;2023-05-23T12:00:29;9.90;;;4.30;;
71513;SDS011;59335;46.652;21.272;2023-05-23T12:03:33;14.00;;;4.07;;
71513;SDS011;59335;46.652;21.272;2023-05-23T12:06:38;14.75;;;4.55;;
71513;SDS011;59335;46.652;21.272;2023-05-23T12:09:43;9.13;;;4.40;;
71513;SDS011;59335;46.652;21.272;2023-05-23T12:12:45;10.25;;;4.57;;
71513;SDS011;59335;46.652;21.272;2023-05-23T12:15:52;9.35;;;4.47;;
71513;SDS011;59335;46.652;21.272;2023-05-23T12:18:56;10.40;;;4.47;;
71513;SDS011;59335;46.652;21.272;2023-05-23T12:22:04;9.02;;;4.07;;
71513;SDS011;59335;46.652;21.272;2023-05-23T12:25:08;9.07;;;4.00;;
71513;SDS011;59335;46.652;21.272;2023-05-23T12:28:14;10.52;;;3.92;;
71513;SDS011;59335;46.652;21.272;2023-05-23T12:31:18;9.23;;;4.10;;
71513;SDS011;59335;46.652;21.272;2023-05-23T12:34:23;10.38;;;4.28;;
71513;SDS011;59335;46.652;21.272;2023-05-23T12:37:26;10.40;;;4.28;;
71513;SDS011;59335;46.652;21.272;2023-05-23T12:40:29;10.93;;;4.03;;
71513;SDS011;59335;46.652;21.272;2023-05-23T12:43:32;12.40;;;4.57;;
71513;SDS011;59335;46.652;21.272;2023-05-23T12:46:35;9.98;;;4.07;;
71513;SDS011;59335;46.652;21.272;2023-05-23T12:49:39;10.05;;;4.53;;
71513;SDS011;59335;46.652;21.272;2023-05-23T12:52:42;11.27;;;4.15;;
71513;SDS011;59335;46.652;21.272;2023-05-23T12:55:49;9.60;;;4.07;;
71513;SDS011;59335;46.652;21.272;2023-05-23T12:58:51;11.18;;;4.40;;
71513;SDS011;59335;46.652;21.272;2023-05-23T13:01:55;9.65;;;4.10;;
71513;SDS011;59335;46.652;21.272;2023-05-23T13:04:58;7.15;;;4.28;;
71513;SDS011;59335;46.652;21.272;2023-05-23T13:08:00;10.85;;;4.70;;
71513;SDS011;59335;46.652;21.272;2023-05-23T13:11:03;10.73;;;4.40;;
71513;SDS011;59335;46.652;21.272;2023-05-23T13:14:06;14.95;;;4.13;;
71513;SDS011;59335;46.652;21.272;2023-05-23T13:17:09;9.52;;;3.90;;
71513;SDS011;59335;46.652;21.272;2023-05-23T13:20:12;10.93;;;3.72;;
71513;SDS011;59335;46.652;21.272;2023-05-23T13:23:15;9.82;;;3.53;;
71513;SDS011;59335;46.652;21.272;2023-05-23T13:26:18;10.40;;;3.90;;
71513;SDS011;59335;46.652;21.272;2023-05-23T13:29:21;9.05;;;3.85;;
71513;SDS011;59335;46.652;21.272;2023-05-23T13:32:24;9.10;;;4.32;;
71513;SDS011;59335;46.652;21.272;2023-05-23T13:35:27;8.82;;;4.03;;
71513;SDS011;59335;46.652;21.272;2023-05-23T13:38:33;9.40;;;3.90;;
71513;SDS011;59335;46.652;21.272;2023-05-23T13:41:40;10.87;;;3.70;;
71513;SDS011;59335;46.652;21.272;2023-05-23T13:44:43;11.63;;;4.15;;
71513;SDS011;59335;46.652;21.272;2023-05-23T13:47:46;11.50;;;4.03;;
71513;SDS011;59335;46.652;21.272;2023-05-23T13:50:48;12.00;;;4.30;;
71513;SDS011;59335;46.652;21.272;2023-05-23T13:53:51;10.13;;;4.20;;
71513;SDS011;59335;46.652;21.272;2023-05-23T13:56:54;13.70;;;4.10;;
71513;SDS011;59335;46.652;21.272;2023-05-23T13:59:56;15.20;;;4.07;;
71513;SDS011;59335;46.652;21.272;2023-05-23T14:02:59;7.85;;;4.00;;
71513;SDS011;59335;46.652;21.272;2023-05-23T14:06:02;8.00;;;3.42;;
71513;SDS011;59335;46.652;21.272;2023-05-23T14:09:07;9.05;;;3.92;;
71513;SDS011;59335;46.652;21.272;2023-05-23T14:12:10;8.80;;;4.13;;
71513;SDS011;59335;46.652;21.272;2023-05-23T14:15:12;14.15;;;4.40;;
71513;SDS011;59335;46.652;21.272;2023-05-23T14:18:15;10.00;;;3.65;;
71513;SDS011;59335;46.652;21.272;2023-05-23T14:21:18;10.88;;;4.05;;
71513;SDS011;59335;46.652;21.272;2023-05-23T14:24:21;8.68;;;4.22;;
71513;SDS011;59335;46.652;21.272;2023-05-23T14:27:23;13.63;;;3.80;;
71513;SDS011;59335;46.652;21.272;2023-05-23T14:30:26;10.55;;;4.38;;
71513;SDS011;59335;46.652;21.272;2023-05-23T14:33:29;8.00;;;3.70;;
71513;SDS011;59335;46.652;21.272;2023-05-23T14:36:33;11.65;;;3.90;;
71513;SDS011;59335;46.652;21.272;2023-05-23T14:39:38;9.90;;;3.72;;
71513;SDS011;59335;46.652;21.272;2023-05-23T14:42:42;8.40;;;3.97;;
71513;SDS011;59335;46.652;21.272;2023-05-23T14:45:45;9.43;;;4.25;;
71513;SDS011;59335;46.652;21.272;2023-05-23T14:48:48;7.47;;;3.88;;
71513;SDS011;59335;46.652;21.272;2023-05-23T14:51:51;7.28;;;3.63;;
71513;SDS011;59335;46.652;21.272;2023-05-23T14:54:54;6.22;;;3.58;;
71513;SDS011;59335;46.652;21.272;2023-05-23T14:57:57;7.47;;;3.30;;
71513;SDS011;59335;46.652;21.272;2023-05-23T15:01:00;8.20;;;3.40;;
71513;SDS011;59335;46.652;21.272;2023-05-23T15:04:02;9.25;;;4.20;;
71513;SDS011;59335;46.652;21.272;2023-05-23T15:07:06;10.50;;;4.00;;
71513;SDS011;59335;46.652;21.272;2023-05-23T15:10:10;11.25;;;4.15;;
71513;SDS011;59335;46.652;21.272;2023-05-23T15:13:13;15.07;;;4.47;;
71513;SDS011;59335;46.652;21.272;2023-05-23T15:16:15;12.23;;;4.10;;
71513;SDS011;59335;46.652;21.272;2023-05-23T15:19:19;12.70;;;4.40;;
71513;SDS011;59335;46.652;21.272;2023-05-23T15:22:21;12.50;;;4.10;;
71513;SDS011;59335;46.652;21.272;2023-05-23T15:25:31;16.25;;;4.53;;
71513;SDS011;59335;46.652;21.272;2023-05-23T15:28:50;12.10;;;3.90;;
71513;SDS011;59335;46.652;21.272;2023-05-23T15:31:52;16.45;;;4.30;;
71513;SDS011;59335;46.652;21.272;2023-05-23T15:34:55;18.92;;;4.75;;
71513;SDS011;59335;46.652;21.272;2023-05-23T15:37:58;18.30;;;4.00;;
71513;SDS011;59335;46.652;21.272;2023-05-23T15:41:00;15.43;;;4.20;;
71513;SDS011;59335;46.652;21.272;2023-05-23T15:44:04;15.27;;;3.70;;
71513;SDS011;59335;46.652;21.272;2023-05-23T15:47:07;13.32;;;4.35;;
71513;SDS011;59335;46.652;21.272;2023-05-23T15:50:10;16.25;;;3.88;;
71513;SDS011;59335;46.652;21.272;2023-05-23T15:53:15;17.77;;;4.78;;
71513;SDS011;59335;46.652;21.272;2023-05-23T15:56:18;14.50;;;4.30;;
71513;SDS011;59335;46.652;21.272;2023-05-23T15:59:21;12.23;;;4.27;;
71513;SDS011;59335;46.652;21.272;2023-05-23T16:02:23;13.85;;;3.97;;
71513;SDS011;59335;46.652;21.272;2023-05-23T16:05:26;12.40;;;4.00;;
71513;SDS011;59335;46.652;21.272;2023-05-23T16:08:29;13.07;;;4.05;;
71513;SDS011;59335;46.652;21.272;2023-05-23T16:11:32;12.90;;;4.25;;
71513;SDS011;59335;46.652;21.272;2023-05-23T16:14:34;11.53;;;3.80;;
71513;SDS011;59335;46.652;21.272;2023-05-23T16:17:37;10.23;;;3.70;;
71513;SDS011;59335;46.652;21.272;2023-05-23T16:20:40;12.48;;;4.00;;
71513;SDS011;59335;46.652;21.272;2023-05-23T16:23:42;13.40;;;3.72;;
71513;SDS011;59335;46.652;21.272;2023-05-23T16:26:45;14.82;;;4.18;;
71513;SDS011;59335;46.652;21.272;2023-05-23T16:29:47;14.23;;;3.90;;
71513;SDS011;59335;46.652;21.272;2023-05-23T16:32:50;11.95;;;3.92;;
71513;SDS011;59335;46.652;21.272;2023-05-23T16:35:53;12.38;;;3.88;;
71513;SDS011;59335;46.652;21.272;2023-05-23T16:38:55;12.23;;;3.80;;
71513;SDS011;59335;46.652;21.272;2023-05-23T16:41:58;19.00;;;4.38;;
71513;SDS011;59335;46.652;21.272;2023-05-23T16:45:01;10.20;;;3.60;;
71513;SDS011;59335;46.652;21.272;2023-05-23T16:48:05;11.95;;;3.92;;
71513;SDS011;59335;46.652;21.272;2023-05-23T16:51:07;10.23;;;3.55;;
71513;SDS011;59335;46.652;21.272;2023-05-23T16:54:10;9.35;;;3.72;;
71513;SDS011;59335;46.652;21.272;2023-05-23T16:57:12;11.18;;;3.60;;
71513;SDS011;59335;46.652;21.272;2023-05-23T17:00:15;9.30;;;3.63;;
71513;SDS011;59335;46.652;21.272;2023-05-23T17:03:18;12.25;;;4.03;;
71513;SDS011;59335;46.652;21.272;2023-05-23T17:06:22;12.48;;;4.05;;
71513;SDS011;59335;46.652;21.272;2023-05-23T17:09:25;13.38;;;3.95;;
71513;SDS011;59335;46.652;21.272;2023-05-23T17:12:27;9.70;;;3.65;;
71513;SDS011;59335;46.652;21.272;2023-05-23T17:15:30;8.27;;;3.63;;
71513;SDS011;59335;46.652;21.272;2023-05-23T17:18:33;8.88;;;4.00;;
71513;SDS011;59335;46.652;21.272;2023-05-23T17:21:35;10.25;;;4.35;;
71513;SDS011;59335;46.652;21.272;2023-05-23T17:24:38;8.65;;;3.50;;
71513;SDS011;59335;46.652;21.272;2023-05-23T17:27:41;15.90;;;4.03;;
71513;SDS011;59335;46.652;21.272;2023-05-23T17:30:44;12.80;;;3.80;;
71513;SDS011;59335;46.652;21.272;2023-05-23T17:33:47;7.75;;;3.65;;
71513;SDS011;59335;46.652;21.272;2023-05-23T17:36:49;10.73;;;3.92;;
71513;SDS011;59335;46.652;21.272;2023-05-23T17:39:55;10.90;;;3.97;;
71513;SDS011;59335;46.652;21.272;2023-05-23T17:42:59;12.10;;;3.90;;
71513;SDS011;59335;46.652;21.272;2023-05-23T17:46:02;7.87;;;3.40;;
71513;SDS011;59335;46.652;21.272;2023-05-23T17:49:04;11.70;;;3.70;;
71513;SDS011;59335;46.652;21.272;2023-05-23T17:52:08;9.65;;;3.50;;
71513;SDS011;59335;46.652;21.272;2023-05-23T17:55:11;11.00;;;3.70;;
71513;SDS011;59335;46.652;21.272;2023-05-23T17:58:13;11.30;;;3.78;;
71513;SDS011;59335;46.652;21.272;2023-05-23T18:01:16;9.97;;;3.43;;
71513;SDS011;59335;46.652;21.272;2023-05-23T18:04:19;12.00;;;3.58;;
71513;SDS011;59335;46.652;21.272;2023-05-23T18:07:23;9.02;;;3.55;;
71513;SDS011;59335;46.652;21.272;2023-05-23T18:10:26;11.05;;;3.60;;
71513;SDS011;59335;46.652;21.272;2023-05-23T18:13:28;9.07;;;3.70;;
71513;SDS011;59335;46.652;21.272;2023-05-23T18:16:31;7.83;;;3.50;;
71513;SDS011;59335;46.652;21.272;2023-05-23T18:19:34;9.43;;;3.58;;
71513;SDS011;59335;46.652;21.272;2023-05-23T18:22:37;6.68;;;3.53;;
71513;SDS011;59335;46.652;21.272;2023-05-23T18:25:40;9.77;;;3.67;;
71513;SDS011;59335;46.652;21.272;2023-05-23T18:28:43;9.88;;;3.47;;
71513;SDS011;59335;46.652;21.272;2023-05-23T18:31:46;10.73;;;3.43;;